createdAt,value
2022-12-24T00:03:06.703Z,100336.47
2022-12-24T00:08:08.624Z,100343.16
2022-12-24T00:13:10.499Z,100359.91
2022-12-24T00:18:12.448Z,100351.28
2022-12-24T00:23:15.145Z,100352.78
2022-12-24T00:28:17.363Z,100355.53
2022-12-24T00:33:24.241Z,100368.47
2022-12-24T00:38:26.505Z,100366.41
2022-12-24T00:43:29.707Z,100378.06
2022-12-24T00:48:32.451Z,100386.97
2022-12-24T00:53:34.429Z,100390.75
2022-12-24T00:58:36.224Z,100396.25
2022-12-24T01:03:38.518Z,100410.31
2022-12-24T01:08:40.660Z,100415.13
2022-12-24T01:13:42.420Z,100425.25
2022-12-24T01:18:44.247Z,100436.25
2022-12-24T01:23:46.167Z,100441.00
2022-12-24T01:28:47.985Z,100448.56
2022-12-24T01:33:50.080Z,100446.00
2022-12-24T01:38:51.986Z,100458.06
2022-12-24T01:43:53.945Z,100455.84
2022-12-24T01:49:03.223Z,100461.31
2022-12-24T01:54:18.175Z,100459.66
2022-12-24T01:59:21.407Z,100469.09
2022-12-24T02:04:50.719Z,100483.69
2022-12-24T02:09:57.514Z,100488.63
2022-12-24T02:14:59.989Z,100504.41
2022-12-24T02:20:20.054Z,100517.63
2022-12-24T02:25:34.255Z,100510.06
2022-12-24T02:30:45.663Z,100515.91
2022-12-24T02:35:53.683Z,100523.09
2022-12-24T02:41:02.102Z,100529.44
2022-12-24T02:46:09.189Z,100538.03
2022-12-24T02:51:11.854Z,100539.59
2022-12-24T02:56:45.837Z,100548.19
2022-12-24T03:02:06.046Z,100544.06
2022-12-24T03:07:25.136Z,100551.59
2022-12-24T03:12:33.570Z,100552.97
2022-12-24T03:17:38.350Z,100553.47
2022-12-24T03:22:40.132Z,100548.84
2022-12-24T03:27:42.568Z,100554.34
2022-12-24T03:32:46.608Z,100568.53
2022-12-24T03:37:48.457Z,100566.31
2022-12-24T03:42:50.374Z,100571.63
2022-12-24T03:47:52.178Z,100576.56
2022-12-24T03:52:55.054Z,100574.34
2022-12-24T03:57:56.987Z,100586.53
2022-12-24T04:02:58.870Z,100577.25
2022-12-24T04:08:00.745Z,100584.47
2022-12-24T04:13:02.643Z,100575.38
2022-12-24T04:18:04.674Z,100580.34
2022-12-24T04:23:06.590Z,100588.41
2022-12-24T04:28:08.612Z,100586.34
2022-12-24T04:33:10.781Z,100596.28
2022-12-24T04:38:12.687Z,100600.91
2022-12-24T04:43:14.907Z,100604.34
2022-12-24T04:48:16.739Z,100605.88
2022-12-24T04:53:18.529Z,100599.53
2022-12-24T04:58:20.549Z,100618.75
2022-12-24T05:03:25.848Z,100624.91
2022-12-24T05:08:27.611Z,100617.34
2022-12-24T05:13:40.374Z,100602.94
2022-12-24T05:18:44.740Z,100621.78
2022-12-24T05:24:05.370Z,100624.53
2022-12-24T05:29:12.298Z,100618.38
2022-12-24T05:34:15.909Z,100624.53
2022-12-24T05:39:18.826Z,100619.59
2022-12-24T05:44:20.893Z,100635.03
2022-12-24T05:49:22.740Z,100632.09
2022-12-24T05:54:24.483Z,100630.41
2022-12-24T05:59:26.321Z,100650.63
2022-12-24T06:04:29.908Z,100647.88
2022-12-24T06:09:31.839Z,100658.69
2022-12-24T06:14:33.768Z,100659.72
2022-12-24T06:19:35.661Z,100670.19
2022-12-24T06:24:37.643Z,100666.59
2022-12-24T06:29:39.427Z,100677.91
2022-12-24T06:34:41.484Z,100676.53
2022-12-24T06:39:43.291Z,100669.00
2022-12-24T06:44:45.137Z,100678.06
2022-12-24T06:49:47.078Z,100679.28
2022-12-24T06:54:49.126Z,100697.81
2022-12-24T06:59:51.100Z,100701.06
2022-12-24T07:04:53.046Z,100699.88
2022-12-24T07:09:56.149Z,100711.00
2022-12-24T07:14:58.005Z,100715.28
2022-12-24T07:20:07.344Z,100714.09
2022-12-24T07:25:10.309Z,100722.50
2022-12-24T07:30:16.186Z,100720.78
2022-12-24T07:35:17.957Z,100738.13
2022-12-24T07:40:19.983Z,100749.25
2022-12-24T07:45:26.729Z,100743.25
2022-12-24T07:50:28.877Z,100773.25
2022-12-24T07:55:30.892Z,100774.47
2022-12-24T08:00:34.266Z,100784.41
2022-12-24T08:05:44.419Z,100802.06
2022-12-24T08:10:51.207Z,100811.50
2022-12-24T08:15:53.326Z,100814.75
2022-12-24T08:20:55.117Z,100822.66
2022-12-24T08:25:57.422Z,100834.84
2022-12-24T08:31:00.165Z,100845.97
2022-12-24T08:36:03.252Z,100844.09
2022-12-24T08:41:05.135Z,100845.13
2022-12-24T08:46:07.099Z,100849.75
2022-12-24T08:51:10.309Z,100859.88
2022-12-24T08:56:13.007Z,100873.94
2022-12-24T09:01:20.533Z,100892.47
2022-12-24T09:06:23.541Z,100886.63
2022-12-24T09:11:25.783Z,100884.56
2022-12-24T09:16:28.293Z,100905.16
2022-12-24T09:21:30.550Z,100902.41
2022-12-24T09:26:33.565Z,100916.78
2022-12-24T09:31:36.821Z,100923.66
2022-12-24T09:36:38.912Z,100922.81
2022-12-24T09:41:50.009Z,100942.19
2022-12-24T09:46:55.198Z,100951.47
2022-12-24T09:52:15.316Z,100947.34
2022-12-24T10:04:46.935Z,100963.81
2022-12-24T10:09:59.243Z,100978.94
2022-12-24T10:15:07.220Z,100978.22
2022-12-24T10:20:44.673Z,100977.41
2022-12-24T10:26:11.066Z,100981.31
2022-12-24T10:31:14.226Z,100977.56
2022-12-24T10:36:25.348Z,100968.66
2022-12-24T10:41:28.624Z,100969.34
2022-12-24T10:46:38.931Z,100969.88
2022-12-24T10:51:47.978Z,100976.53
2022-12-24T10:56:55.773Z,100986.00
2022-12-24T11:01:59.802Z,100989.47
2022-12-24T11:07:07.544Z,101010.25
2022-12-24T11:13:05.716Z,101016.78
2022-12-24T11:18:15.404Z,101015.75
2022-12-24T11:23:17.932Z,101013.34
2022-12-24T11:28:26.633Z,101013.69
2022-12-24T11:33:30.529Z,101015.00
2022-12-24T11:38:35.095Z,101029.25
2022-12-24T11:43:48.733Z,101019.78
2022-12-24T11:49:08.101Z,101013.81
2022-12-24T11:54:20.691Z,101032.13
2022-12-24T11:59:44.903Z,101036.25
2022-12-24T12:04:52.062Z,101046.22
2022-12-24T12:10:18.826Z,101044.81
2022-12-24T12:15:25.107Z,101042.75
2022-12-24T12:20:52.441Z,101054.22
2022-12-24T12:26:00.206Z,101055.06
2022-12-24T12:31:20.959Z,101056.09
2022-12-24T12:36:31.496Z,101056.78
2022-12-24T12:41:33.250Z,101071.53
2022-12-24T12:46:54.285Z,101077.56
2022-12-24T12:52:22.381Z,101078.41
2022-12-24T12:57:30.813Z,101097.44
2022-12-24T13:03:05.250Z,101089.72
2022-12-24T13:08:38.244Z,101098.44
2022-12-24T13:13:51.995Z,101100.00
2022-12-24T13:19:12.634Z,101109.97
2022-12-24T13:24:20.954Z,101125.03
2022-12-24T13:29:40.468Z,101125.03
2022-12-24T13:34:52.502Z,101125.19
2022-12-24T13:40:17.384Z,101131.38
2022-12-24T13:45:34.415Z,101144.25
2022-12-24T13:50:38.513Z,101145.59
2022-12-24T13:56:35.405Z,101149.69
2022-12-24T14:01:42.813Z,101157.53
2022-12-24T14:06:56.202Z,101164.75
2022-12-24T14:12:04.310Z,101157.16
2022-12-24T14:17:36.290Z,101155.28
2022-12-24T14:22:45.615Z,101153.53
2022-12-24T14:27:54.253Z,101159.50
2022-12-24T14:32:56.646Z,101170.13
2022-12-24T14:38:05.013Z,101169.03
2022-12-24T14:43:20.487Z,101152.56
2022-12-24T14:48:53.476Z,101155.78
2022-12-24T14:54:32.542Z,101171.38
2022-12-24T14:59:45.955Z,101180.63
2022-12-24T15:05:03.748Z,101187.44
2022-12-24T15:10:21.131Z,101196.22
2022-12-24T15:15:24.059Z,101193.31
2022-12-24T15:20:29.249Z,101191.91
2022-12-24T15:25:33.467Z,101213.13
2022-12-24T15:30:35.391Z,101220.34
2022-12-24T15:35:49.748Z,101228.34
2022-12-24T15:40:52.098Z,101229.13
2022-12-24T15:45:54.830Z,101239.63
2022-12-24T15:51:01.009Z,101230.69
2022-12-24T15:56:05.817Z,101229.50
2022-12-24T16:01:14.631Z,101242.06
2022-12-24T16:06:16.885Z,101244.72
2022-12-24T16:11:24.360Z,101251.53
2022-12-24T16:16:58.695Z,101240.25
2022-12-24T16:22:24.952Z,101238.28
2022-12-24T16:27:26.917Z,101236.09
2022-12-24T16:32:36.520Z,101250.97
2022-12-24T16:37:38.309Z,101257.31
2022-12-24T16:43:03.115Z,101240.72
2022-12-24T16:48:07.438Z,101231.66
2022-12-24T16:53:17.535Z,101235.25
2022-12-24T16:58:20.690Z,101245.50
2022-12-24T17:03:22.671Z,101250.97
2022-12-24T17:08:24.647Z,101252.78
2022-12-24T17:13:32.883Z,101254.09
2022-12-24T17:18:45.631Z,101249.25
2022-12-24T17:23:47.493Z,101234.00
2022-12-24T17:28:54.063Z,101234.06
2022-12-24T17:33:58.270Z,101221.31
2022-12-24T17:39:00.523Z,101228.53
2022-12-24T17:44:02.447Z,101229.25
2022-12-24T17:49:04.382Z,101231.00
2022-12-24T17:54:06.311Z,101227.53
2022-12-24T17:59:08.338Z,101223.69
2022-12-24T18:04:10.812Z,101213.13
2022-12-24T18:09:12.581Z,101228.97
2022-12-24T18:14:15.490Z,101239.44
2022-12-24T18:19:17.872Z,101240.63
2022-12-24T18:24:19.895Z,101231.56
2022-12-24T18:29:21.899Z,101232.00
2022-12-24T18:34:23.905Z,101238.50
2022-12-24T18:39:28.023Z,101243.06
2022-12-24T18:44:30.161Z,101248.66
2022-12-24T18:49:34.444Z,101234.38
2022-12-24T18:54:38.074Z,101237.94
2022-12-24T18:59:39.962Z,101246.75
2022-12-24T19:04:41.879Z,101245.19
2022-12-24T19:09:47.855Z,101261.31
2022-12-24T19:14:49.809Z,101255.31
2022-12-24T19:19:51.675Z,101251.56
2022-12-24T19:24:53.697Z,101238.78
2022-12-24T19:29:55.496Z,101253.59
2022-12-24T19:34:57.330Z,101261.81
2022-12-24T19:39:59.220Z,101260.25
2022-12-24T19:45:01.034Z,101248.72
2022-12-24T19:50:05.764Z,101249.06
2022-12-24T19:55:08.673Z,101244.28
2022-12-24T20:00:11.264Z,101234.03
2022-12-24T20:05:18.060Z,101245.00
2022-12-24T20:10:20.729Z,101231.44
2022-12-24T20:15:24.578Z,101225.66
2022-12-24T20:20:26.395Z,101229.13
2022-12-24T20:25:31.003Z,101236.06
2022-12-24T20:30:36.629Z,101222.19
2022-12-24T20:35:38.582Z,101213.56
2022-12-24T20:40:47.795Z,101208.09
2022-12-24T20:45:51.196Z,101203.03
2022-12-24T20:50:53.159Z,101215.25
2022-12-24T20:55:55.284Z,101218.19
2022-12-24T21:00:57.420Z,101200.84
2022-12-24T21:06:00.718Z,101201.19
2022-12-24T21:11:21.178Z,101209.06
2022-12-24T21:16:23.013Z,101206.19
2022-12-24T21:21:24.909Z,101190.06
2022-12-24T21:26:26.976Z,101193.13
2022-12-24T21:31:28.916Z,101183.34
2022-12-24T21:36:31.383Z,101191.84
2022-12-24T21:41:33.179Z,101195.00
2022-12-24T21:46:35.102Z,101198.63
2022-12-24T21:51:39.470Z,101195.31
2022-12-24T21:57:00.757Z,101194.19
2022-12-24T22:02:03.311Z,101197.81
2022-12-24T22:07:24.629Z,101190.31
2022-12-24T22:12:31.006Z,101183.72
2022-12-24T22:17:33.017Z,101188.88
2022-12-24T22:22:34.920Z,101188.88
2022-12-24T22:27:36.771Z,101192.66
2022-12-24T22:32:38.638Z,101184.00
2022-12-24T22:37:41.078Z,101186.28
2022-12-24T22:42:43.008Z,101208.91
2022-12-24T22:47:44.804Z,101221.59
2022-12-24T22:52:46.588Z,101221.44
2022-12-24T22:57:49.075Z,101226.84
2022-12-24T23:02:51.067Z,101230.47
2022-12-24T23:07:52.994Z,101229.16
2022-12-24T23:13:15.317Z,101246.69
2022-12-24T23:18:17.549Z,101234.16
2022-12-24T23:23:19.325Z,101225.47
2022-12-24T23:28:21.133Z,101225.88
2022-12-24T23:33:22.990Z,101221.25
2022-12-24T23:38:25.815Z,101213.44
2022-12-24T23:43:27.875Z,101205.78
2022-12-24T23:48:29.899Z,101190.91
2022-12-24T23:53:31.722Z,101189.56
2022-12-24T23:58:34.023Z,101176.13
